Time;durP1;ratioP1;P1;durP2;ratioP2;P2;SDS_P1;SDS_P2;PMS_P1;PMS_P2;Temp;Humidity;BMP_temperature;BMP_pressure;BME280_temperature;BME280_humidity;BME280_pressure;Samples;Min_cycle;Max_cycle;Signal;HPM_P1;HPM_P2
2023/11/12 00:01:21;;;;;;;9.02;4.43;;;5.30;99.90;;;;;;5016112;28;20050;-40
2023/11/12 00:03:49;;;;;;;7.88;3.80;;;5.40;99.90;;;;;;5014272;28;20068;-42
2023/11/12 00:06:17;;;;;;;8.63;4.43;;;5.30;99.90;;;;;;5017472;28;20114;-37
2023/11/12 00:08:44;;;;;;;7.63;3.97;;;5.30;99.90;;;;;;5010480;28;20073;-42
2023/11/12 00:11:11;;;;;;;8.50;4.18;;;5.20;99.90;;;;;;5014252;28;20132;-39
2023/11/12 00:13:41;;;;;;;8.48;4.35;;;5.10;99.90;;;;;;5014051;28;20141;-38
2023/11/12 00:16:08;;;;;;;8.93;4.40;;;5.10;99.90;;;;;;5011488;28;20054;-41
2023/11/12 00:18:35;;;;;;;8.63;3.83;;;5.10;99.90;;;;;;5013024;28;20431;-38
2023/11/12 00:21:03;;;;;;;8.07;3.83;;;5.00;99.90;;;;;;5013800;28;20049;-40
2023/11/12 00:23:30;;;;;;;6.70;4.18;;;5.00;99.90;;;;;;5010581;28;20050;-40
2023/11/12 00:25:57;;;;;;;8.20;4.10;;;5.00;99.90;;;;;;5011814;28;20532;-40
2023/11/12 00:28:24;;;;;;;7.28;3.90;;;5.00;99.90;;;;;;5008441;28;20132;-39
2023/11/12 00:30:51;;;;;;;7.38;3.75;;;5.00;99.90;;;;;;5011706;28;20415;-39
2023/11/12 00:33:19;;;;;;;7.75;4.20;;;5.00;99.90;;;;;;5010940;28;20056;-41
2023/11/12 00:35:49;;;;;;;9.02;4.10;;;4.90;99.90;;;;;;5010230;28;20101;-38
2023/11/12 00:38:31;;;;;;;9.45;3.95;;;4.90;99.90;;;;;;5010429;28;20057;-35
2023/11/12 00:40:58;;;;;;;7.50;4.10;;;4.80;99.90;;;;;;5009394;28;20061;-36
2023/11/12 00:43:28;;;;;;;8.00;4.15;;;4.80;99.90;;;;;;5010950;28;20105;-38
2023/11/12 00:45:57;;;;;;;7.93;4.20;;;4.70;99.90;;;;;;5009350;28;20046;-40
2023/11/12 00:48:24;;;;;;;7.10;4.40;;;4.70;99.90;;;;;;5010906;28;20049;-41
2023/11/12 00:50:52;;;;;;;6.72;4.03;;;4.60;99.90;;;;;;5014829;28;20073;-38
2023/11/12 00:53:19;;;;;;;6.97;3.85;;;4.60;99.90;;;;;;5038058;28;20084;-41
2023/11/12 00:55:47;;;;;;;7.47;4.30;;;4.50;99.90;;;;;;5022168;28;20061;-39
2023/11/12 00:58:14;;;;;;;9.60;4.00;;;4.40;99.90;;;;;;5020544;28;20046;-41
2023/11/12 01:00:41;;;;;;;7.90;3.92;;;4.40;99.90;;;;;;5016408;28;20050;-40
2023/11/12 01:03:09;;;;;;;8.10;4.15;;;4.40;99.90;;;;;;5015562;28;20071;-41
2023/11/12 01:05:38;;;;;;;8.63;4.18;;;4.40;99.90;;;;;;5016850;28;20545;-38
2023/11/12 01:08:06;;;;;;;6.07;4.10;;;4.30;99.90;;;;;;5010276;28;20088;-39
2023/11/12 01:10:34;;;;;;;8.15;4.30;;;4.20;99.90;;;;;;5012782;28;20096;-36
2023/11/12 01:13:02;;;;;;;7.38;4.10;;;4.20;99.90;;;;;;5011144;28;20050;-41
2023/11/12 01:15:29;;;;;;;5.97;4.28;;;4.10;99.90;;;;;;5011477;28;20077;-37
2023/11/12 01:17:57;;;;;;;7.18;4.10;;;4.10;99.90;;;;;;5011056;28;20073;-37
2023/11/12 01:20:24;;;;;;;7.05;3.85;;;4.10;99.90;;;;;;5010956;28;20389;-40
2023/11/12 01:22:51;;;;;;;10.25;4.50;;;4.00;99.90;;;;;;5006763;28;20093;-39
2023/11/12 01:25:18;;;;;;;7.80;4.22;;;3.90;99.90;;;;;;5013954;28;20046;-38
2023/11/12 01:27:45;;;;;;;6.95;4.30;;;3.90;99.90;;;;;;5010876;28;20054;-40
2023/11/12 01:30:12;;;;;;;5.40;3.78;;;3.90;99.90;;;;;;5007885;28;20081;-40
2023/11/12 01:32:40;;;;;;;8.13;4.25;;;3.80;99.90;;;;;;5011357;28;20475;-38
2023/11/12 01:35:07;;;;;;;7.55;4.18;;;3.70;99.90;;;;;;5013822;28;20437;-38
2023/11/12 01:37:34;;;;;;;6.78;3.80;;;3.70;99.90;;;;;;5021815;28;20050;-39
2023/11/12 01:40:04;;;;;;;9.43;4.80;;;3.60;99.90;;;;;;5023279;28;20088;-38
2023/11/12 01:42:31;;;;;;;6.78;4.10;;;3.60;99.90;;;;;;5011406;28;20058;-38
2023/11/12 01:44:59;;;;;;;7.40;4.20;;;3.60;99.90;;;;;;5010366;28;20102;-40
2023/11/12 01:47:27;;;;;;;11.77;4.65;;;3.60;99.90;;;;;;5026035;28;20046;-38
2023/11/12 01:49:55;;;;;;;6.50;3.90;;;3.70;99.90;;;;;;5016120;28;20057;-37
2023/11/12 01:52:22;;;;;;;7.85;4.22;;;3.70;99.90;;;;;;5012650;28;20518;-38
2023/11/12 01:54:49;;;;;;;6.25;3.95;;;3.60;99.90;;;;;;5012375;28;20042;-37
2023/11/12 01:57:18;;;;;;;8.32;4.05;;;3.50;99.90;;;;;;5011791;28;20514;-37
2023/11/12 01:59:46;;;;;;;6.22;4.00;;;3.40;99.90;;;;;;5009098;28;20462;-39
2023/11/12 02:02:13;;;;;;;6.63;4.57;;;3.30;99.90;;;;;;5008236;28;20054;-40
2023/11/12 02:04:41;;;;;;;6.90;4.53;;;3.20;99.90;;;;;;5009956;28;20045;-41
2023/11/12 02:07:08;;;;;;;8.23;4.40;;;3.30;99.90;;;;;;5018567;28;20121;-38
2023/11/12 02:09:36;;;;;;;8.82;5.00;;;3.20;99.90;;;;;;5014049;28;20057;-38
2023/11/12 02:12:03;;;;;;;10.05;4.43;;;3.20;99.90;;;;;;5010450;28;20141;-39
2023/11/12 02:14:31;;;;;;;5.90;4.00;;;3.20;99.90;;;;;;5008886;28;20052;-36
2023/11/12 02:16:59;;;;;;;8.77;4.50;;;3.20;99.90;;;;;;5008476;28;20121;-38
2023/11/12 02:19:28;;;;;;;8.02;4.57;;;3.20;99.90;;;;;;5011930;28;20042;-37
2023/11/12 02:21:56;;;;;;;7.97;4.65;;;3.10;99.90;;;;;;5006557;28;20046;-36
2023/11/12 02:24:24;;;;;;;8.23;4.57;;;3.00;99.90;;;;;;5006174;28;20058;-41
2023/11/12 02:26:51;;;;;;;7.38;4.85;;;3.10;99.90;;;;;;5010151;28;20441;-42
2023/11/12 02:29:19;;;;;;;8.32;4.57;;;3.20;99.90;;;;;;5028664;28;20065;-39
2023/11/12 02:31:46;;;;;;;8.60;4.65;;;3.20;99.90;;;;;;5012912;28;20160;-40
2023/11/12 02:34:13;;;;;;;8.30;4.93;;;3.20;99.90;;;;;;5014115;28;20090;-39
2023/11/12 02:36:40;;;;;;;9.73;5.00;;;3.20;99.90;;;;;;5013085;28;20105;-39
2023/11/12 02:39:09;;;;;;;7.13;4.30;;;3.20;99.90;;;;;;5024004;28;20073;-39
2023/11/12 02:41:37;;;;;;;8.85;4.93;;;3.20;99.90;;;;;;5022145;28;20081;-42
2023/11/12 02:44:07;;;;;;;8.90;4.35;;;3.20;99.90;;;;;;5021646;28;20060;-40
2023/11/12 02:46:35;;;;;;;10.10;4.10;;;3.20;99.90;;;;;;5021371;28;20077;-40
2023/11/12 02:49:30;;;;;;;7.55;4.55;;;3.10;99.90;;;;;;5023865;28;20139;-40
2023/11/12 02:51:57;;;;;;;10.43;5.88;;;3.10;99.90;;;;;;5024985;28;20034;-41
2023/11/12 02:54:25;;;;;;;6.65;4.13;;;3.10;99.90;;;;;;5025627;28;20088;-41
2023/11/12 02:56:52;;;;;;;9.88;5.28;;;3.10;99.90;;;;;;5018855;28;20065;-41
2023/11/12 02:59:19;;;;;;;8.18;4.80;;;3.10;99.90;;;;;;5019850;28;20060;-42
2023/11/12 03:01:46;;;;;;;9.02;4.75;;;3.20;99.90;;;;;;5023272;28;20072;-39
2023/11/12 03:04:13;;;;;;;8.35;4.65;;;3.30;99.90;;;;;;5023458;28;20371;-39
2023/11/12 03:06:40;;;;;;;6.78;4.53;;;3.50;99.90;;;;;;5022912;28;20459;-39
2023/11/12 03:09:09;;;;;;;10.32;4.75;;;3.50;99.90;;;;;;5010075;28;20042;-40
2023/11/12 03:11:37;;;;;;;6.72;4.40;;;3.50;99.90;;;;;;5008213;28;20046;-42
2023/11/12 03:14:05;;;;;;;7.53;4.85;;;3.60;99.90;;;;;;5006162;28;20046;-41
2023/11/12 03:16:32;;;;;;;8.05;4.22;;;3.70;99.90;;;;;;5010191;28;20128;-41
2023/11/12 03:19:00;;;;;;;8.93;4.95;;;3.80;99.90;;;;;;5011850;28;20054;-38
2023/11/12 03:21:27;;;;;;;8.65;4.35;;;3.90;99.90;;;;;;5009593;28;20085;-39
2023/11/12 03:23:55;;;;;;;8.18;4.70;;;4.00;99.90;;;;;;5008867;28;20447;-36
2023/11/12 03:26:22;;;;;;;8.57;4.53;;;4.10;99.90;;;;;;5006470;28;20589;-39
2023/11/12 03:28:49;;;;;;;8.40;4.97;;;4.10;99.90;;;;;;5008889;28;20510;-39
2023/11/12 03:31:16;;;;;;;7.22;4.35;;;4.20;99.90;;;;;;5008239;28;20454;-39
2023/11/12 03:33:43;;;;;;;6.40;4.07;;;4.20;99.90;;;;;;5009996;28;20064;-37
2023/11/12 03:36:15;;;;;;;6.55;4.32;;;4.10;99.90;;;;;;5009297;28;20054;-38
2023/11/12 03:38:42;;;;;;;7.32;4.28;;;4.10;99.90;;;;;;5009445;28;20049;-41
2023/11/12 03:41:14;;;;;;;7.75;4.82;;;4.10;99.90;;;;;;5025900;28;20065;-41
2023/11/12 03:43:40;;;;;;;7.53;4.20;;;3.90;99.90;;;;;;5014469;28;20121;-39
2023/11/12 03:46:07;;;;;;;9.02;4.25;;;3.90;99.90;;;;;;5016891;28;20042;-40
2023/11/12 03:48:36;;;;;;;6.97;4.68;;;3.70;99.90;;;;;;5008711;28;20045;-36
2023/11/12 03:51:03;;;;;;;7.57;4.57;;;3.60;99.90;;;;;;5011459;28;20414;-39
2023/11/12 03:53:30;;;;;;;6.88;4.53;;;3.60;99.90;;;;;;5018214;28;20065;-38
2023/11/12 03:55:57;;;;;;;7.68;4.25;;;3.60;99.90;;;;;;5013953;28;20058;-40
2023/11/12 03:58:24;;;;;;;9.43;5.07;;;3.60;99.90;;;;;;5010901;28;20060;-37
2023/11/12 04:00:51;;;;;;;7.57;4.13;;;3.60;99.90;;;;;;5019200;28;20102;-40
2023/11/12 04:03:19;;;;;;;7.45;4.07;;;3.60;99.90;;;;;;5021601;28;20156;-39
2023/11/12 04:05:46;;;;;;;7.72;4.47;;;3.60;99.90;;;;;;5020459;28;20136;-39
2023/11/12 04:08:14;;;;;;;7.32;4.97;;;3.60;99.90;;;;;;5015536;28;20050;-35
2023/11/12 04:10:41;;;;;;;9.93;4.57;;;3.70;99.90;;;;;;5009485;28;20042;-39
2023/11/12 04:13:08;;;;;;;8.27;4.82;;;3.80;99.90;;;;;;5011186;28;20044;-40
2023/11/12 04:15:35;;;;;;;5.82;4.32;;;3.80;99.90;;;;;;5007116;28;20084;-37
2023/11/12 04:18:02;;;;;;;7.13;4.20;;;3.80;99.90;;;;;;5006376;28;20058;-38
2023/11/12 04:20:32;;;;;;;9.45;4.70;;;3.80;99.90;;;;;;5009773;28;20079;-39
2023/11/12 04:22:59;;;;;;;8.90;5.32;;;3.70;99.90;;;;;;5011151;28;20687;-39
2023/11/12 04:25:26;;;;;;;6.45;4.22;;;3.50;99.90;;;;;;5023815;28;20065;-42
2023/11/12 04:27:53;;;;;;;6.80;4.10;;;3.50;99.90;;;;;;5024094;28;20069;-38
2023/11/12 04:30:20;;;;;;;6.50;4.15;;;3.40;99.90;;;;;;5022891;28;20181;-39
2023/11/12 04:32:48;;;;;;;6.00;4.15;;;3.30;99.90;;;;;;5010087;28;20113;-38
2023/11/12 04:35:19;;;;;;;9.00;4.25;;;3.20;99.90;;;;;;5009321;28;20467;-37
2023/11/12 04:37:46;;;;;;;7.63;4.78;;;3.20;99.90;;;;;;5012443;28;20050;-40
2023/11/12 04:40:16;;;;;;;8.27;4.38;;;3.10;99.90;;;;;;5030412;28;20053;-38
2023/11/12 04:42:43;;;;;;;6.68;4.60;;;3.10;99.90;;;;;;5013563;28;20058;-38
2023/11/12 04:45:11;;;;;;;8.82;4.88;;;3.10;99.90;;;;;;5014635;28;20418;-41
2023/11/12 04:47:38;;;;;;;5.95;4.18;;;3.00;99.90;;;;;;5010443;28;20112;-39
2023/11/12 04:50:05;;;;;;;8.63;4.85;;;3.00;99.90;;;;;;5012135;28;20110;-39
2023/11/12 04:52:32;;;;;;;6.63;4.22;;;2.90;99.90;;;;;;5015081;28;20057;-41
2023/11/12 04:54:59;;;;;;;6.97;4.40;;;2.90;99.90;;;;;;5013972;28;20064;-40
2023/11/12 04:57:26;;;;;;;6.85;4.43;;;2.80;99.90;;;;;;5011637;28;20135;-39
2023/11/12 04:59:53;;;;;;;6.78;3.83;;;2.80;99.90;;;;;;5012752;28;20515;-40
2023/11/12 05:02:21;;;;;;;6.97;4.53;;;2.70;99.90;;;;;;5013246;28;20049;-40
2023/11/12 05:04:48;;;;;;;6.97;4.13;;;2.70;99.90;;;;;;5014671;28;20069;-38
2023/11/12 05:07:15;;;;;;;7.00;4.45;;;2.60;99.90;;;;;;5025595;28;20152;-41
2023/11/12 05:09:42;;;;;;;8.05;4.57;;;2.60;99.90;;;;;;5025585;28;20064;-40
2023/11/12 05:12:09;;;;;;;7.10;4.30;;;2.60;99.90;;;;;;5012377;28;20061;-42
2023/11/12 05:14:36;;;;;;;6.68;4.28;;;2.50;99.90;;;;;;5012356;28;20069;-38
2023/11/12 05:17:05;;;;;;;6.10;4.22;;;2.50;99.90;;;;;;5011560;28;20101;-41
2023/11/12 05:19:32;;;;;;;7.35;4.57;;;2.50;99.90;;;;;;5011937;28;20061;-41
2023/11/12 05:21:59;;;;;;;7.03;4.68;;;2.40;99.90;;;;;;5010353;28;20076;-38
2023/11/12 05:24:26;;;;;;;9.13;5.38;;;2.40;99.90;;;;;;5011895;28;20112;-40
2023/11/12 05:26:53;;;;;;;8.82;4.50;;;2.40;99.90;;;;;;5008053;28;20060;-40
2023/11/12 05:29:20;;;;;;;5.95;4.28;;;2.30;99.90;;;;;;5010507;28;20046;-39
2023/11/12 05:31:47;;;;;;;7.60;4.40;;;2.30;99.90;;;;;;5008281;28;20058;-40
2023/11/12 05:34:15;;;;;;;9.00;4.95;;;2.30;99.90;;;;;;5009501;28;20052;-40
2023/11/12 05:36:42;;;;;;;6.32;4.47;;;2.30;99.90;;;;;;5009482;28;20092;-39
2023/11/12 05:39:12;;;;;;;7.43;4.40;;;2.30;99.90;;;;;;5010185;28;20102;-40
2023/11/12 05:41:39;;;;;;;8.38;4.70;;;2.30;99.90;;;;;;5007807;28;20060;-38
2023/11/12 05:44:06;;;;;;;8.90;4.93;;;2.30;99.90;;;;;;5011400;28;20123;-41
2023/11/12 05:46:33;;;;;;;10.98;5.28;;;2.20;99.90;;;;;;5012719;28;20112;-38
2023/11/12 05:49:00;;;;;;;9.15;5.90;;;2.20;99.90;;;;;;5011434;28;20144;-41
2023/11/12 05:51:27;;;;;;;9.15;5.60;;;2.20;99.90;;;;;;5015878;28;20048;-37
2023/11/12 05:53:54;;;;;;;9.40;5.55;;;2.20;99.90;;;;;;5008724;28;20123;-40
2023/11/12 05:56:21;;;;;;;7.78;5.07;;;2.20;99.90;;;;;;5010228;28;20070;-42
2023/11/12 05:58:48;;;;;;;8.98;5.10;;;2.20;99.90;;;;;;5015222;28;20149;-40
2023/11/12 06:01:17;;;;;;;9.43;5.68;;;2.20;99.90;;;;;;5010432;28;20108;-41
2023/11/12 06:03:45;;;;;;;8.80;5.47;;;2.10;99.90;;;;;;5011124;28;20053;-41
2023/11/12 06:06:12;;;;;;;7.20;4.82;;;2.20;99.90;;;;;;5009827;28;20077;-39
2023/11/12 06:08:39;;;;;;;8.32;4.68;;;2.20;99.90;;;;;;5006723;28;20046;-38
2023/11/12 06:11:06;;;;;;;10.43;5.28;;;2.10;99.90;;;;;;5011710;28;20042;-41
2023/11/12 06:13:33;;;;;;;13.20;5.25;;;2.10;99.90;;;;;;5011482;28;20053;-45
2023/11/12 06:16:00;;;;;;;7.53;4.93;;;2.10;99.90;;;;;;5010182;28;20041;-37
2023/11/12 06:18:27;;;;;;;8.35;5.40;;;2.10;99.90;;;;;;5009015;28;20061;-37
2023/11/12 06:20:54;;;;;;;8.00;4.82;;;2.10;99.90;;;;;;5008543;28;20045;-41
2023/11/12 06:23:21;;;;;;;7.65;4.82;;;2.20;99.90;;;;;;5009869;28;20048;-40
2023/11/12 06:25:48;;;;;;;8.27;4.65;;;2.20;99.90;;;;;;5013197;28;20034;-40
2023/11/12 06:28:16;;;;;;;11.10;5.55;;;2.20;99.90;;;;;;5011854;28;20046;-37
2023/11/12 06:30:43;;;;;;;9.48;5.13;;;2.10;99.90;;;;;;5009944;28;20042;-39
2023/11/12 06:33:10;;;;;;;10.57;5.15;;;2.20;99.90;;;;;;5010068;28;20118;-36
2023/11/12 06:35:38;;;;;;;11.75;5.53;;;2.10;99.90;;;;;;5010219;28;20140;-37
2023/11/12 06:38:05;;;;;;;12.50;7.10;;;2.20;99.90;;;;;;5018867;28;20058;-41
2023/11/12 06:40:32;;;;;;;9.73;5.38;;;2.20;99.90;;;;;;5019745;28;20053;-41
2023/11/12 06:42:59;;;;;;;9.23;5.18;;;2.20;99.90;;;;;;5022358;28;20053;-41
2023/11/12 06:45:26;;;;;;;11.48;5.60;;;2.30;99.90;;;;;;5023651;28;20305;-40
2023/11/12 06:47:53;;;;;;;10.35;5.57;;;2.30;99.90;;;;;;5014814;28;20042;-39
2023/11/12 06:50:20;;;;;;;8.63;5.70;;;2.40;99.90;;;;;;5017082;28;20041;-39
2023/11/12 06:52:47;;;;;;;10.50;6.25;;;2.40;99.90;;;;;;5016937;28;20046;-40
2023/11/12 06:55:14;;;;;;;9.77;6.20;;;2.50;99.90;;;;;;5013362;28;20291;-39
2023/11/12 06:57:41;;;;;;;9.75;4.95;;;2.50;99.90;;;;;;5015708;28;20050;-39
2023/11/12 07:00:09;;;;;;;8.95;5.63;;;2.60;99.90;;;;;;5010415;28;20431;-39
2023/11/12 07:02:37;;;;;;;10.98;5.60;;;2.60;99.90;;;;;;5009428;28;20112;-41
2023/11/12 07:05:05;;;;;;;10.65;6.18;;;2.70;99.90;;;;;;5008368;28;20065;-40
2023/11/12 07:07:32;;;;;;;9.60;5.75;;;2.80;99.90;;;;;;5008273;28;20053;-40
2023/11/12 07:09:59;;;;;;;9.18;5.57;;;2.80;99.90;;;;;;5014294;28;20553;-40
2023/11/12 07:12:26;;;;;;;8.75;5.32;;;2.90;99.90;;;;;;5012314;28;20501;-39
2023/11/12 07:14:53;;;;;;;7.88;5.47;;;2.90;99.90;;;;;;5009892;28;20045;-38
2023/11/12 07:17:20;;;;;;;8.75;5.55;;;3.00;99.90;;;;;;5010123;28;20050;-41
2023/11/12 07:19:47;;;;;;;9.50;5.95;;;3.10;99.90;;;;;;5011327;28;20427;-41
2023/11/12 07:22:14;;;;;;;11.02;6.30;;;3.10;99.90;;;;;;5011656;28;20656;-39
2023/11/12 07:24:41;;;;;;;11.07;5.65;;;3.10;99.90;;;;;;5008667;28;20139;-42
2023/11/12 07:27:08;;;;;;;9.45;6.10;;;3.20;99.90;;;;;;5011266;28;20046;-39
2023/11/12 07:29:35;;;;;;;9.35;6.03;;;3.30;99.90;;;;;;5009746;28;20530;-39
2023/11/12 07:32:02;;;;;;;11.02;5.70;;;3.30;99.90;;;;;;5011166;28;20050;-40
2023/11/12 07:34:29;;;;;;;11.05;6.63;;;3.30;99.90;;;;;;5010374;28;20050;-41
2023/11/12 07:36:57;;;;;;;11.02;5.72;;;3.40;99.90;;;;;;5023057;28;20092;-40
2023/11/12 07:39:24;;;;;;;11.00;5.93;;;3.40;99.90;;;;;;5021048;28;20049;-42
2023/11/12 07:41:51;;;;;;;9.70;6.25;;;3.50;99.90;;;;;;5008451;28;20049;-40
2023/11/12 07:44:22;;;;;;;12.18;6.80;;;3.60;99.90;;;;;;5025162;28;20130;-41
2023/11/12 07:46:49;;;;;;;11.18;6.60;;;3.60;99.90;;;;;;5008538;28;20042;-40
2023/11/12 07:49:17;;;;;;;12.90;6.82;;;3.70;99.90;;;;;;5008815;28;20069;-41
2023/11/12 07:51:44;;;;;;;9.45;5.75;;;3.70;99.90;;;;;;5010057;28;20343;-39
2023/11/12 07:54:11;;;;;;;9.02;5.95;;;3.80;99.90;;;;;;5008009;28;20049;-40
2023/11/12 07:56:38;;;;;;;9.55;4.75;;;3.80;99.90;;;;;;5006454;28;20060;-39
2023/11/12 07:59:08;;;;;;;7.82;5.35;;;3.90;99.90;;;;;;5006553;28;20042;-40
2023/11/12 08:01:35;;;;;;;9.77;4.80;;;4.00;99.90;;;;;;5008588;28;20056;-41
2023/11/12 08:04:03;;;;;;;7.40;5.13;;;4.10;99.90;;;;;;5008668;28;20042;-38
2023/11/12 08:06:30;;;;;;;9.13;5.10;;;4.20;99.90;;;;;;5025596;28;20045;-39
2023/11/12 08:08:59;;;;;;;8.43;5.07;;;4.20;99.90;;;;;;5008981;28;20046;-38
2023/11/12 08:11:27;;;;;;;9.32;5.13;;;4.30;99.90;;;;;;5008809;28;20612;-37
2023/11/12 08:13:55;;;;;;;11.43;6.57;;;4.40;99.90;;;;;;5013424;28;20050;-37
2023/11/12 08:16:22;;;;;;;10.93;6.20;;;4.50;99.90;;;;;;5013588;28;20042;-38
2023/11/12 08:18:49;;;;;;;10.50;5.88;;;4.50;99.90;;;;;;5013829;28;20115;-42
2023/11/12 08:21:20;;;;;;;10.20;6.40;;;4.60;99.90;;;;;;5012928;28;20472;-41
2023/11/12 08:23:48;;;;;;;11.40;6.20;;;4.60;99.90;;;;;;5014706;28;20129;-40
2023/11/12 08:26:15;;;;;;;10.15;5.93;;;4.70;99.90;;;;;;5015614;28;20065;-39
2023/11/12 08:28:42;;;;;;;10.23;5.72;;;4.70;99.90;;;;;;5013718;28;20042;-40
2023/11/12 08:31:09;;;;;;;9.90;5.65;;;4.70;99.90;;;;;;5014853;28;20042;-37
2023/11/12 08:33:37;;;;;;;10.75;5.80;;;4.70;99.90;;;;;;5022469;28;20096;-40
2023/11/12 08:36:05;;;;;;;10.60;6.85;;;4.80;99.90;;;;;;5022254;28;20049;-38
2023/11/12 08:38:35;;;;;;;10.65;6.10;;;4.90;99.90;;;;;;5023770;28;20061;-40
2023/11/12 08:41:02;;;;;;;10.88;6.13;;;5.00;99.90;;;;;;5025142;28;20578;-42
2023/11/12 08:43:29;;;;;;;12.18;7.50;;;5.00;99.90;;;;;;5024315;28;20097;-38
2023/11/12 08:45:56;;;;;;;10.48;6.68;;;5.20;99.90;;;;;;5022868;28;20050;-42
2023/11/12 08:48:30;;;;;;;14.32;8.75;;;5.30;99.90;;;;;;5028925;28;20041;-40
2023/11/12 08:50:59;;;;;;;10.73;6.80;;;5.30;99.90;;;;;;5026130;28;20105;-39
2023/11/12 08:53:29;;;;;;;;;;;5.20;99.90;;;;;;5026636;28;20076;-38
2023/11/12 08:55:56;;;;;;;12.55;6.47;;;5.30;99.90;;;;;;5022662;28;19922;-40
2023/11/12 08:58:24;;;;;;;12.38;6.40;;;5.40;99.90;;;;;;5022551;28;20056;-38
2023/11/12 09:00:51;;;;;;;9.75;6.25;;;5.50;99.90;;;;;;5026159;28;20041;-38
2023/11/12 09:03:19;;;;;;;9.65;6.50;;;5.60;99.90;;;;;;5016524;28;20049;-39
2023/11/12 09:05:46;;;;;;;12.23;7.43;;;5.60;99.90;;;;;;5017798;28;20057;-38
2023/11/12 09:08:13;;;;;;;9.55;6.30;;;5.70;99.90;;;;;;5018698;28;20044;-36
2023/11/12 09:10:43;;;;;;;10.52;6.53;;;5.80;99.90;;;;;;5011675;28;20050;-40
2023/11/12 09:13:10;;;;;;;9.57;6.50;;;5.80;99.90;;;;;;5012507;28;20050;-41
2023/11/12 09:15:37;;;;;;;9.18;5.97;;;6.00;99.90;;;;;;5011977;28;20045;-39
2023/11/12 09:18:04;;;;;;;9.15;6.43;;;6.30;99.90;;;;;;5009216;28;20609;-37
2023/11/12 09:20:32;;;;;;;11.60;7.20;;;6.40;99.90;;;;;;5014896;28;20060;-39
2023/11/12 09:22:59;;;;;;;9.95;6.63;;;6.40;99.90;;;;;;5023414;28;20057;-41
2023/11/12 09:25:26;;;;;;;10.55;6.60;;;6.60;99.90;;;;;;5024880;28;20604;-38
2023/11/12 09:27:55;;;;;;;8.85;5.95;;;6.80;99.90;;;;;;5024499;28;20046;-39
2023/11/12 09:30:23;;;;;;;11.95;7.38;;;7.10;99.90;;;;;;5014501;28;20054;-39
2023/11/12 09:32:50;;;;;;;14.00;6.95;;;7.40;99.90;;;;;;5007943;28;20464;-39
2023/11/12 09:35:18;;;;;;;8.32;5.63;;;7.70;99.90;;;;;;5014224;28;20072;-41
2023/11/12 09:37:45;;;;;;;10.35;6.07;;;7.90;99.90;;;;;;5016088;28;20057;-40
2023/11/12 09:40:13;;;;;;;8.48;5.95;;;8.20;99.90;;;;;;5023171;28;20050;-41
2023/11/12 09:42:51;;;;;;;9.73;6.20;;;8.40;99.90;;;;;;5021694;28;20050;-40
2023/11/12 09:45:19;;;;;;;9.15;6.10;;;8.70;99.90;;;;;;5019924;28;20089;-42
2023/11/12 09:47:54;;;;;;;10.63;6.85;;;8.80;99.90;;;;;;5011926;28;20812;-42
2023/11/12 09:50:22;;;;;;;9.75;5.82;;;8.80;99.90;;;;;;5016415;28;20042;-41
2023/11/12 09:52:50;;;;;;;9.05;6.63;;;8.90;99.90;;;;;;5012268;28;20041;-37
2023/11/12 09:55:19;;;;;;;9.02;5.97;;;8.80;99.90;;;;;;5013867;28;20068;-41
2023/11/12 09:57:48;;;;;;;12.20;7.20;;;8.90;99.90;;;;;;5011492;28;20119;-39
2023/11/12 10:00:16;;;;;;;13.93;9.23;;;8.60;99.90;;;;;;5011060;28;20125;-41
2023/11/12 10:02:47;;;;;;;17.15;11.48;;;8.70;99.90;;;;;;5013876;28;20147;-41
2023/11/12 10:05:14;;;;;;;17.40;10.77;;;8.80;99.90;;;;;;5011466;28;20049;-41
2023/11/12 10:07:45;;;;;;;15.63;10.20;;;8.90;99.90;;;;;;5005923;28;20037;-38
2023/11/12 10:10:21;;;;;;;10.88;6.80;;;9.10;99.90;;;;;;5008217;28;20042;-40
2023/11/12 10:12:49;;;;;;;9.80;6.72;;;9.40;99.90;;;;;;5007342;28;20050;-38
2023/11/12 10:15:26;;;;;;;10.88;6.90;;;9.60;99.90;;;;;;5005082;28;20048;-39
2023/11/12 10:17:57;;;;;;;10.68;6.70;;;9.90;99.90;;;;;;5004383;28;20463;-37
2023/11/12 10:20:30;;;;;;;8.82;5.95;;;9.90;99.90;;;;;;5004651;28;20075;-41
2023/11/12 10:22:58;;;;;;;8.70;6.50;;;10.20;99.90;;;;;;5008153;28;20053;-38
2023/11/12 10:25:41;;;;;;;9.80;6.57;;;10.20;99.90;;;;;;5006328;28;20116;-39
2023/11/12 10:28:11;;;;;;;9.15;5.93;;;10.50;99.90;;;;;;5002965;28;20057;-37
2023/11/12 10:30:39;;;;;;;8.55;6.25;;;9.90;99.90;;;;;;5005185;28;20049;-40
2023/11/12 10:33:20;;;;;;;8.13;6.28;;;10.20;99.90;;;;;;5001686;28;20089;-38
2023/11/12 10:35:47;;;;;;;9.27;5.63;;;10.10;99.90;;;;;;5004423;28;20048;-39
2023/11/12 10:38:16;;;;;;;9.50;6.13;;;10.30;99.90;;;;;;5005110;28;20072;-40
2023/11/12 10:41:02;;;;;;;8.65;6.05;;;10.30;99.90;;;;;;5006073;28;20053;-38
2023/11/12 10:43:31;;;;;;;8.45;6.38;;;10.20;99.90;;;;;;5003208;28;20061;-42
2023/11/12 10:46:06;;;;;;;10.52;6.90;;;9.90;99.90;;;;;;5004638;28;20409;-39
2023/11/12 10:48:37;;;;;;;9.07;6.35;;;10.10;99.90;;;;;;5004832;28;20049;-41
2023/11/12 10:51:10;;;;;;;9.38;6.43;;;10.00;99.90;;;;;;5000409;28;20537;-42
2023/11/12 10:53:38;;;;;;;9.35;6.40;;;10.10;99.90;;;;;;5004702;28;20281;-39
2023/11/12 10:56:06;;;;;;;8.07;6.13;;;10.10;99.90;;;;;;5002387;28;20408;-41
2023/11/12 10:58:34;;;;;;;7.18;5.30;;;10.00;99.90;;;;;;5005707;28;20058;-41
2023/11/12 11:01:03;;;;;;;7.68;5.47;;;10.00;99.90;;;;;;4999975;28;20057;-40
2023/11/12 11:03:34;;;;;;;6.53;5.22;;;10.00;99.90;;;;;;5005559;28;20434;-37
2023/11/12 11:06:03;;;;;;;6.20;5.32;;;10.00;99.90;;;;;;5007711;28;20534;-39
2023/11/12 11:08:31;;;;;;;6.47;4.68;;;10.20;99.90;;;;;;5001034;28;20065;-36
2023/11/12 11:11:00;;;;;;;6.93;4.90;;;10.50;99.90;;;;;;5012829;28;20453;-40
2023/11/12 11:13:28;;;;;;;8.38;4.60;;;10.60;99.90;;;;;;5003877;28;20048;-40
2023/11/12 11:15:56;;;;;;;5.80;4.30;;;10.50;99.90;;;;;;5004252;28;20053;-42
2023/11/12 11:18:33;;;;;;;6.45;4.65;;;10.60;99.90;;;;;;5005374;28;20156;-41
2023/11/12 11:21:08;;;;;;;7.43;5.40;;;10.50;99.90;;;;;;5004615;28;20054;-39
2023/11/12 11:23:49;;;;;;;9.65;5.18;;;10.80;99.90;;;;;;5003598;28;20100;-43
2023/11/12 11:26:39;;;;;;;6.22;4.82;;;10.80;99.90;;;;;;5004623;28;20050;-38
2023/11/12 11:29:13;;;;;;;6.43;4.82;;;10.80;99.90;;;;;;5009117;28;20414;-39
2023/11/12 11:31:42;;;;;;;6.07;4.47;;;10.90;99.90;;;;;;5018653;28;20149;-41
2023/11/12 11:34:10;;;;;;;7.65;5.55;;;11.00;99.90;;;;;;5016890;28;20142;-40
2023/11/12 11:36:39;;;;;;;7.43;5.30;;;11.10;99.90;;;;;;5005485;28;20115;-40
2023/11/12 11:39:17;;;;;;;8.35;5.53;;;10.80;99.90;;;;;;5003017;28;20050;-43
2023/11/12 11:41:55;;;;;;;8.20;5.80;;;11.00;99.90;;;;;;5002697;28;20663;-40
2023/11/12 11:44:38;;;;;;;7.97;5.82;;;11.40;99.90;;;;;;5003903;28;20046;-39
2023/11/12 11:47:14;;;;;;;6.50;4.97;;;11.80;99.90;;;;;;5004311;28;20065;-39
2023/11/12 11:49:46;;;;;;;7.10;4.95;;;11.90;99.90;;;;;;5004414;28;20046;-41
2023/11/12 11:52:24;;;;;;;7.93;4.55;;;12.30;99.90;;;;;;5003150;28;20050;-39
2023/11/12 11:54:55;;;;;;;9.98;8.18;;;12.80;99.90;;;;;;5003581;28;20570;-42
2023/11/12 11:57:26;;;;;;;11.75;5.22;;;13.20;99.90;;;;;;5003396;28;20078;-41
2023/11/12 11:59:55;;;;;;;7.93;5.72;;;12.80;99.90;;;;;;5003358;28;20074;-42
2023/11/12 12:02:23;;;;;;;8.98;5.40;;;12.60;99.90;;;;;;5001897;28;20505;-40
2023/11/12 12:04:57;;;;;;;7.50;6.00;;;12.70;99.90;;;;;;5011523;28;20112;-40
2023/11/12 12:07:29;;;;;;;7.47;4.88;;;12.90;99.90;;;;;;5013080;28;20062;-39
2023/11/12 12:09:58;;;;;;;6.90;4.80;;;13.20;99.90;;;;;;5013142;28;20038;-40
2023/11/12 12:12:27;;;;;;;5.55;4.45;;;12.80;99.90;;;;;;5005467;28;20132;-41
2023/11/12 12:14:55;;;;;;;5.43;3.95;;;12.70;99.90;;;;;;5004165;28;20127;-38
2023/11/12 12:17:22;;;;;;;4.72;3.92;;;13.10;99.90;;;;;;5005533;28;20399;-39
2023/11/12 12:19:54;;;;;;;5.15;4.00;;;13.30;99.90;;;;;;5008234;28;20470;-39
2023/11/12 12:22:25;;;;;;;6.60;4.13;;;13.60;99.90;;;;;;5004151;28;20077;-40
2023/11/12 12:24:56;;;;;;;5.90;4.00;;;13.90;99.90;;;;;;5001114;28;20871;-42
2023/11/12 12:27:24;;;;;;;5.40;4.57;;;13.40;99.90;;;;;;5003795;28;20441;-43
2023/11/12 12:29:53;;;;;;;6.25;4.93;;;13.40;99.90;;;;;;5004991;28;20116;-38
2023/11/12 12:32:21;;;;;;;6.20;4.47;;;13.70;99.90;;;;;;5000281;28;20129;-43
2023/11/12 12:34:59;;;;;;;5.70;3.80;;;13.80;99.90;;;;;;5008767;28;20049;-40
2023/11/12 12:37:30;;;;;;;5.70;4.03;;;13.80;99.90;;;;;;5013415;28;20108;-40
2023/11/12 12:40:05;;;;;;;9.32;5.75;;;13.60;99.90;;;;;;5013859;28;20479;-39
2023/11/12 12:42:34;;;;;;;4.93;3.83;;;13.40;99.90;;;;;;5002448;28;20121;-39
2023/11/12 12:45:03;;;;;;;6.82;3.72;;;13.40;99.90;;;;;;5004666;28;20054;-38
2023/11/12 12:47:33;;;;;;;5.00;3.67;;;13.50;99.90;;;;;;5003289;28;20456;-39
2023/11/12 12:50:29;;;;;;;4.78;3.40;;;13.80;99.90;;;;;;5002210;28;20054;-39
2023/11/12 12:53:20;;;;;;;6.82;5.30;;;14.20;99.90;;;;;;5002984;28;20391;-38
2023/11/12 12:55:48;;;;;;;4.03;3.30;;;14.50;99.90;;;;;;5003324;28;20069;-40
2023/11/12 12:58:15;;;;;;;5.32;3.70;;;14.90;99.90;;;;;;5003736;28;20053;-41
2023/11/12 13:00:43;;;;;;;4.00;3.30;;;14.60;99.90;;;;;;5004115;28;20088;-41